Appleton, Idaho
Current Conditions -  °F | °C
As of 8:53 PM on Sunday 21 Dec 2014 (Local Time) from KJER Reporting Station
Overcast Overcast  
Wind Chill: 25°   Ceiling: 600
Heat Index: 36°   Visibility: 10mi
Dew Point: 34°   Wind: 21mph
Humidity: 93%   Direction: 230°SW
Pressure: 30.05"   Gusts: 29mph
Location:  42.7238°N, 114.338°W
Report Text: KJER 220353Z AUTO 23018G25KT 10SM OVC006 02/01 A3005 RMK AO2 SLP183 T00220011
Loading
Personal Weather Stations






























Interactive Weather Map New forecast layout! Learn more

10-Day Weather Forecast

Advertisements
Track Severe Weather on mobile